createdAt,value
2019-02-21T00:02:16.238Z,8.43
2019-02-21T00:04:45.002Z,8.40
2019-02-21T00:07:13.509Z,8.38
2019-02-21T00:09:41.960Z,8.38
2019-02-21T00:12:10.415Z,8.36
2019-02-21T00:14:38.905Z,8.35
2019-02-21T00:17:07.386Z,8.34
2019-02-21T00:19:35.849Z,8.36
2019-02-21T00:22:04.346Z,8.37
2019-02-21T00:24:32.800Z,8.37
2019-02-21T00:27:01.264Z,8.39
2019-02-21T00:29:29.772Z,8.41
2019-02-21T00:31:58.221Z,8.42
2019-02-21T00:34:26.693Z,8.42
2019-02-21T00:36:55.176Z,8.42
2019-02-21T00:39:23.628Z,8.43
2019-02-21T00:41:52.087Z,8.42
2019-02-21T00:44:20.583Z,8.41
2019-02-21T00:46:49.054Z,8.40
2019-02-21T00:49:17.523Z,8.41
2019-02-21T00:51:46.040Z,8.39
2019-02-21T00:54:14.506Z,8.36
2019-02-21T00:56:42.966Z,8.33
2019-02-21T00:59:11.455Z,8.32
2019-02-21T01:01:39.911Z,8.30
2019-02-21T01:04:08.367Z,8.28
2019-02-21T01:06:38.000Z,8.27
2019-02-21T01:09:06.468Z,8.25
2019-02-21T01:11:34.935Z,8.24
2019-02-21T01:14:03.449Z,8.23
2019-02-21T01:16:31.898Z,8.21
2019-02-21T01:19:00.371Z,8.21
2019-02-21T01:21:28.880Z,8.23
2019-02-21T01:23:57.339Z,8.22
2019-02-21T01:26:25.804Z,8.22
2019-02-21T01:28:54.348Z,8.23
2019-02-21T01:31:22.816Z,8.22
2019-02-21T01:33:51.299Z,8.20
2019-02-21T01:36:19.807Z,8.18
2019-02-21T01:38:48.260Z,8.15
2019-02-21T01:41:16.809Z,8.14
2019-02-21T01:43:45.310Z,8.15
2019-02-21T01:46:13.785Z,8.15
2019-02-21T01:48:42.234Z,8.17
2019-02-21T01:51:10.746Z,8.20
2019-02-21T01:53:39.203Z,8.21
2019-02-21T01:56:07.663Z,8.23
2019-02-21T01:58:36.178Z,8.26
2019-02-21T02:01:08.538Z,8.28
2019-02-21T02:03:34.899Z,8.29
2019-02-21T02:06:03.415Z,8.31
2019-02-21T02:08:32.388Z,8.32
2019-02-21T02:11:00.849Z,8.33
2019-02-21T02:13:29.347Z,8.34
2019-02-21T02:15:57.813Z,8.35
2019-02-21T02:18:26.266Z,8.34
2019-02-21T02:20:54.766Z,8.36
2019-02-21T02:23:23.245Z,8.37
2019-02-21T02:25:51.694Z,8.36
2019-02-21T02:28:20.208Z,8.36
2019-02-21T02:30:48.669Z,8.37
2019-02-21T02:33:17.130Z,8.38
2019-02-21T02:35:45.659Z,8.38
2019-02-21T02:38:14.118Z,8.39
2019-02-21T02:40:42.598Z,8.39
2019-02-21T02:43:11.212Z,8.39
2019-02-21T02:45:39.658Z,8.40
2019-02-21T02:48:08.115Z,8.39
2019-02-21T02:50:36.632Z,8.40
2019-02-21T02:53:05.309Z,8.40
2019-02-21T02:55:33.778Z,8.41
2019-02-21T02:58:02.291Z,8.42
2019-02-21T03:00:30.756Z,8.43
2019-02-21T03:02:59.236Z,8.44
2019-02-21T03:05:27.744Z,8.44
2019-02-21T03:07:56.207Z,8.46
2019-02-21T03:10:25.737Z,8.45
2019-02-21T03:12:54.252Z,8.46
2019-02-21T03:15:22.720Z,8.48
2019-02-21T03:17:51.181Z,8.48
2019-02-21T03:20:19.691Z,8.49
2019-02-21T03:22:48.157Z,8.51
2019-02-21T03:25:16.620Z,8.50
2019-02-21T03:27:45.106Z,8.51
2019-02-21T03:30:13.708Z,8.52
2019-02-21T03:32:42.197Z,8.52
2019-02-21T03:35:10.795Z,8.53
2019-02-21T03:37:39.239Z,8.54
2019-02-21T03:40:09.594Z,8.54
2019-02-21T03:42:38.163Z,8.54
2019-02-21T03:45:09.850Z,8.55
2019-02-21T03:47:38.301Z,8.56
2019-02-21T03:50:09.759Z,8.55
2019-02-21T03:52:38.204Z,8.55
2019-02-21T03:55:08.111Z,8.54
2019-02-21T03:57:36.676Z,8.55
2019-02-21T04:00:07.868Z,8.55
2019-02-21T04:02:36.332Z,8.55
2019-02-21T04:05:06.174Z,8.55
2019-02-21T04:07:34.646Z,8.54
2019-02-21T04:10:03.994Z,8.55
2019-02-21T04:12:32.612Z,8.55
2019-02-21T04:15:01.079Z,8.53
2019-02-21T04:17:29.553Z,8.54
2019-02-21T04:19:58.053Z,8.53
2019-02-21T04:22:26.530Z,8.51
2019-02-21T04:24:54.986Z,8.50
2019-02-21T04:27:23.593Z,8.50
2019-02-21T04:29:52.058Z,8.48
2019-02-21T04:32:20.524Z,8.48
2019-02-21T04:34:49.021Z,8.46
2019-02-21T04:37:20.188Z,8.46
2019-02-21T04:39:48.641Z,8.46
2019-02-21T04:42:17.167Z,8.45
2019-02-21T04:44:45.618Z,8.43
2019-02-21T04:47:14.096Z,8.41
2019-02-21T04:49:42.577Z,8.38
2019-02-21T04:52:11.036Z,8.37
2019-02-21T04:54:39.500Z,8.35
2019-02-21T04:57:08.661Z,8.33
2019-02-21T04:59:39.441Z,8.30
2019-02-21T05:02:07.898Z,8.27
2019-02-21T05:04:36.409Z,8.26
2019-02-21T05:07:04.875Z,8.21
2019-02-21T05:09:33.348Z,8.21
2019-02-21T05:12:01.882Z,8.19
2019-02-21T05:14:30.606Z,8.18
2019-02-21T05:17:00.667Z,8.16
2019-02-21T05:19:29.353Z,8.13
2019-02-21T05:21:57.821Z,8.14
2019-02-21T05:24:26.292Z,8.11
2019-02-21T05:26:56.419Z,8.10
2019-02-21T05:29:24.896Z,8.08
2019-02-21T05:31:57.653Z,8.07
2019-02-21T05:34:43.034Z,8.06
2019-02-21T05:37:31.181Z,8.04
2019-02-21T05:40:10.043Z,8.04
2019-02-21T05:42:42.921Z,8.03
2019-02-21T05:45:15.501Z,8.02
2019-02-21T05:47:48.057Z,8.01
2019-02-21T05:50:30.057Z,7.99
2019-02-21T05:53:16.056Z,7.98
2019-02-21T05:56:02.325Z,7.99
2019-02-21T05:58:35.085Z,7.99
2019-02-21T06:01:07.932Z,7.98
2019-02-21T06:03:44.075Z,7.96
2019-02-21T06:06:17.124Z,7.95
2019-02-21T06:08:51.710Z,7.93
2019-02-21T06:11:21.829Z,7.92
2019-02-21T06:13:53.738Z,7.92
2019-02-21T06:16:33.130Z,7.92
2019-02-21T06:19:10.713Z,7.93
2019-02-21T06:21:47.854Z,7.94
2019-02-21T06:24:20.636Z,7.94
2019-02-21T06:26:50.789Z,7.94
2019-02-21T06:29:22.563Z,7.91
2019-02-21T06:31:51.221Z,7.91
2019-02-21T06:34:22.839Z,7.91
2019-02-21T06:36:51.385Z,7.90
2019-02-21T06:39:19.850Z,7.90
2019-02-21T06:41:58.699Z,7.88
2019-02-21T06:44:18.563Z,7.87
2019-02-21T06:46:47.042Z,7.87
2019-02-21T06:49:15.555Z,7.87
2019-02-21T06:51:44.033Z,7.86
2019-02-21T06:54:12.498Z,7.86
2019-02-21T06:56:41.054Z,7.84
2019-02-21T06:59:13.534Z,7.84
2019-02-21T07:01:40.796Z,7.83
2019-02-21T07:04:09.284Z,7.83
2019-02-21T07:06:39.294Z,7.83
2019-02-21T07:09:07.911Z,7.83
2019-02-21T07:11:36.405Z,7.83
2019-02-21T07:14:04.877Z,7.81
2019-02-21T07:16:33.329Z,7.83
2019-02-21T07:19:02.320Z,7.83
2019-02-21T07:21:30.799Z,7.84
2019-02-21T07:24:07.918Z,7.86
2019-02-21T07:26:36.419Z,7.88
2019-02-21T07:29:04.877Z,7.90
2019-02-21T07:31:33.332Z,7.91
2019-02-21T07:34:02.081Z,7.93
2019-02-21T07:36:30.548Z,7.93
2019-02-21T07:39:13.837Z,7.94
2019-02-21T07:41:29.221Z,7.95
2019-02-21T07:43:57.684Z,7.94
2019-02-21T07:46:26.417Z,7.95
2019-02-21T07:48:54.918Z,7.97
2019-02-21T07:51:23.379Z,7.98
2019-02-21T07:53:51.835Z,8.00
2019-02-21T07:56:20.337Z,8.01
2019-02-21T07:58:48.790Z,8.01
2019-02-21T08:01:17.662Z,7.69
2019-02-21T08:03:48.551Z,8.04
2019-02-21T08:06:16.431Z,8.07
2019-02-21T08:08:45.184Z,8.08
2019-02-21T08:11:13.761Z,8.11
2019-02-21T08:13:42.290Z,8.14
2019-02-21T08:16:12.475Z,8.14
2019-02-21T08:18:41.126Z,8.16
2019-02-21T08:21:10.697Z,8.19
2019-02-21T08:23:49.665Z,8.19
2019-02-21T08:26:09.441Z,8.19
2019-02-21T08:28:37.922Z,8.19
2019-02-21T08:31:06.449Z,8.19
2019-02-21T08:33:42.152Z,8.20
2019-02-21T08:36:10.613Z,8.21
2019-02-21T08:38:39.076Z,8.24
2019-02-21T08:41:07.576Z,8.28
2019-02-21T08:43:37.284Z,8.33
2019-02-21T08:46:05.909Z,8.37
2019-02-21T08:48:34.439Z,8.42
2019-02-21T08:51:02.940Z,8.46
2019-02-21T08:53:31.414Z,8.49
2019-02-21T08:56:00.056Z,8.50
2019-02-21T08:58:28.524Z,8.50
2019-02-21T09:00:57.008Z,8.51
2019-02-21T09:03:25.517Z,8.52
2019-02-21T09:05:53.969Z,8.52
2019-02-21T09:08:32.762Z,8.52
2019-02-21T09:10:52.658Z,8.55
2019-02-21T09:13:23.740Z,8.57
2019-02-21T09:15:51.512Z,8.57
2019-02-21T09:18:20.030Z,8.58
2019-02-21T09:20:48.491Z,8.61
2019-02-21T09:23:17.090Z,8.62
2019-02-21T09:25:45.584Z,8.61
2019-02-21T09:28:15.789Z,8.62
2019-02-21T09:30:44.231Z,8.65
2019-02-21T09:33:17.420Z,8.68
2019-02-21T09:35:42.908Z,8.72
2019-02-21T09:38:13.156Z,8.74
2019-02-21T09:40:42.799Z,8.79
2019-02-21T09:43:11.536Z,8.83
2019-02-21T09:45:42.190Z,8.86
2019-02-21T09:48:12.015Z,8.92
2019-02-21T09:50:40.388Z,8.96
2019-02-21T09:53:08.838Z,9.01
2019-02-21T09:55:37.395Z,9.09
2019-02-21T09:58:05.869Z,9.16
2019-02-21T10:00:35.961Z,9.23
2019-02-21T10:03:04.614Z,9.30
2019-02-21T10:05:33.072Z,9.42
2019-02-21T10:08:01.552Z,9.53
2019-02-21T10:10:30.053Z,9.69
2019-02-21T10:12:58.519Z,9.82
2019-02-21T10:15:26.992Z,9.98
2019-02-21T10:17:55.495Z,10.07
2019-02-21T10:20:23.965Z,10.14
2019-02-21T10:22:52.429Z,10.24
2019-02-21T10:25:24.974Z,10.32
2019-02-21T10:27:53.439Z,10.39
2019-02-21T10:30:23.360Z,10.48
2019-02-21T10:32:51.857Z,10.53
2019-02-21T10:35:20.398Z,10.56
2019-02-21T10:37:48.888Z,10.61
2019-02-21T10:40:17.989Z,10.65
2019-02-21T10:42:46.468Z,10.69
2019-02-21T10:45:16.762Z,10.74
2019-02-21T10:47:45.351Z,10.83
2019-02-21T10:50:17.001Z,10.94
2019-02-21T10:52:45.470Z,11.05
2019-02-21T10:55:14.159Z,11.14
2019-02-21T10:57:45.189Z,11.24
2019-02-21T11:00:18.690Z,11.28
2019-02-21T11:02:47.160Z,11.33
2019-02-21T11:05:15.645Z,11.32
2019-02-21T11:07:44.143Z,11.33
2019-02-21T11:10:19.219Z,11.30
2019-02-21T11:12:47.871Z,11.29
2019-02-21T11:15:21.368Z,11.30
2019-02-21T11:17:49.844Z,11.30
2019-02-21T11:20:19.248Z,11.29
2019-02-21T11:22:47.760Z,11.28
2019-02-21T11:25:16.215Z,11.26
2019-02-21T11:27:45.714Z,11.29
2019-02-21T11:30:16.529Z,11.29
2019-02-21T11:32:45.011Z,11.30
2019-02-21T11:35:13.951Z,11.31
2019-02-21T11:37:46.604Z,11.31
2019-02-21T11:40:17.156Z,11.34
2019-02-21T11:42:46.355Z,11.36
2019-02-21T11:45:18.360Z,11.36
2019-02-21T11:47:48.369Z,11.34
2019-02-21T11:50:18.289Z,11.25
2019-02-21T11:52:46.859Z,11.37
2019-02-21T11:55:23.615Z,11.37
2019-02-21T11:57:52.100Z,11.34
2019-02-21T12:00:23.280Z,11.35
2019-02-21T12:02:51.778Z,11.33
2019-02-21T12:05:30.370Z,11.33
2019-02-21T12:07:50.553Z,11.32
2019-02-21T12:10:19.093Z,11.30
2019-02-21T12:12:47.579Z,11.30
2019-02-21T12:15:16.707Z,11.30
2019-02-21T12:17:45.182Z,11.28
2019-02-21T12:20:15.434Z,11.28
2019-02-21T12:22:43.960Z,11.29
2019-02-21T12:25:17.422Z,11.28
2019-02-21T12:27:45.890Z,11.28
2019-02-21T12:30:17.365Z,11.29
2019-02-21T12:32:45.961Z,11.29
2019-02-21T12:35:14.598Z,11.28
2019-02-21T12:37:43.109Z,11.27
2019-02-21T12:40:14.295Z,11.24
2019-02-21T12:42:42.733Z,11.22
2019-02-21T12:45:16.740Z,11.18
2019-02-21T12:47:50.785Z,11.14
2019-02-21T12:50:15.542Z,11.10
2019-02-21T12:52:44.099Z,11.03
2019-02-21T12:55:12.760Z,10.97
2019-02-21T12:57:41.231Z,10.91
2019-02-21T13:00:12.510Z,10.88
2019-02-21T13:02:41.000Z,10.84
2019-02-21T13:05:09.480Z,10.81
2019-02-21T13:07:38.021Z,10.76
2019-02-21T13:10:12.095Z,10.70
2019-02-21T13:12:40.583Z,10.67
2019-02-21T13:15:11.528Z,10.64
2019-02-21T13:17:40.032Z,10.60
2019-02-21T13:20:11.288Z,10.58
2019-02-21T13:22:41.357Z,10.55
2019-02-21T13:25:15.165Z,10.53
2019-02-21T13:27:43.672Z,10.52
2019-02-21T13:30:16.733Z,10.50
2019-02-21T13:32:45.932Z,10.48
2019-02-21T13:35:14.554Z,10.46
2019-02-21T13:37:43.068Z,10.44
2019-02-21T13:40:14.480Z,10.43
2019-02-21T13:42:42.958Z,10.41
2019-02-21T13:45:13.498Z,10.40
2019-02-21T13:47:41.954Z,10.40
2019-02-21T13:50:13.235Z,10.42
2019-02-21T13:52:41.747Z,10.42
2019-02-21T13:55:10.305Z,10.43
2019-02-21T13:57:38.788Z,10.45
2019-02-21T14:00:10.557Z,10.45
2019-02-21T14:02:39.076Z,10.46
2019-02-21T14:05:07.810Z,10.47
2019-02-21T14:07:37.371Z,10.46
2019-02-21T14:10:11.296Z,10.47
2019-02-21T14:12:39.943Z,10.47
2019-02-21T14:15:11.629Z,10.48
2019-02-21T14:17:40.098Z,10.48
2019-02-21T14:20:09.244Z,10.49
2019-02-21T14:22:37.746Z,10.49
2019-02-21T14:25:08.960Z,10.48
2019-02-21T14:27:37.433Z,10.48
2019-02-21T14:30:09.071Z,10.46
2019-02-21T14:32:37.542Z,10.45
2019-02-21T14:35:09.158Z,10.44
2019-02-21T14:37:37.694Z,10.41
2019-02-21T14:40:09.099Z,10.40
2019-02-21T14:42:37.565Z,10.37
2019-02-21T14:45:12.152Z,10.35
2019-02-21T14:47:39.772Z,10.35
2019-02-21T14:50:10.477Z,10.31
2019-02-21T14:52:38.976Z,10.31
2019-02-21T14:55:13.737Z,10.29
2019-02-21T14:57:42.230Z,10.29
2019-02-21T15:00:19.259Z,10.27
2019-02-21T15:02:47.723Z,10.27
2019-02-21T15:05:16.187Z,10.28
2019-02-21T15:07:44.722Z,10.28
2019-02-21T15:10:13.357Z,10.29
2019-02-21T15:12:43.445Z,10.29
2019-02-21T15:15:27.702Z,10.31
2019-02-21T15:18:06.964Z,10.31
2019-02-21T15:20:36.282Z,10.28
2019-02-21T15:22:56.871Z,10.28
2019-02-21T15:25:25.907Z,10.27
2019-02-21T15:27:54.554Z,10.27
2019-02-21T15:30:25.998Z,10.25
2019-02-21T15:32:54.587Z,10.28
2019-02-21T15:35:23.058Z,10.28
2019-02-21T15:37:51.925Z,10.26
2019-02-21T15:40:20.488Z,10.22
2019-02-21T15:42:49.062Z,10.20
2019-02-21T15:45:26.502Z,10.17
2019-02-21T15:47:55.024Z,10.14
2019-02-21T15:50:26.222Z,10.11
2019-02-21T15:52:56.356Z,10.09
2019-02-21T15:55:24.824Z,10.07
2019-02-21T15:58:03.285Z,10.06
2019-02-21T16:00:24.567Z,10.04
2019-02-21T16:02:53.037Z,10.03
2019-02-21T16:05:21.500Z,10.02
2019-02-21T16:07:49.990Z,10.02
2019-02-21T16:10:21.646Z,10.01
2019-02-21T16:12:50.962Z,10.00
2019-02-21T16:15:19.749Z,9.99
2019-02-21T16:17:48.262Z,9.97
2019-02-21T16:20:18.333Z,9.95
2019-02-21T16:22:46.829Z,9.93
2019-02-21T16:25:18.068Z,9.93
2019-02-21T16:27:46.525Z,9.93
2019-02-21T16:30:15.307Z,9.91
2019-02-21T16:32:43.800Z,9.92
2019-02-21T16:35:13.899Z,9.91
2019-02-21T16:37:42.400Z,9.90
2019-02-21T16:40:17.076Z,9.88
2019-02-21T16:42:45.545Z,9.87
2019-02-21T16:45:15.972Z,9.86
2019-02-21T16:47:44.519Z,9.83
2019-02-21T16:50:14.324Z,9.81
2019-02-21T16:52:43.013Z,9.80
2019-02-21T16:55:19.345Z,9.79
2019-02-21T16:57:47.848Z,9.78
2019-02-21T17:00:20.428Z,9.78
2019-02-21T17:02:49.041Z,9.75
2019-02-21T17:05:17.646Z,9.75
2019-02-21T17:07:46.096Z,9.73
2019-02-21T17:10:15.814Z,9.73
2019-02-21T17:12:44.312Z,9.72
2019-02-21T17:15:14.899Z,9.71
2019-02-21T17:17:43.499Z,9.71
2019-02-21T17:20:17.360Z,9.71
2019-02-21T17:22:45.816Z,9.70
2019-02-21T17:25:15.421Z,9.69
2019-02-21T17:27:47.754Z,9.67
2019-02-21T17:30:17.355Z,9.65
2019-02-21T17:32:45.876Z,9.64
2019-02-21T17:35:14.798Z,9.61
2019-02-21T17:37:43.327Z,9.59
2019-02-21T17:40:14.749Z,9.58
2019-02-21T17:42:43.596Z,9.58
2019-02-21T17:45:13.384Z,9.55
2019-02-21T17:47:41.882Z,9.55
2019-02-21T17:50:12.422Z,9.55
2019-02-21T17:52:40.873Z,9.54
2019-02-21T17:55:10.899Z,9.51
2019-02-21T17:57:39.457Z,9.50
2019-02-21T18:00:11.099Z,9.50
2019-02-21T18:02:39.546Z,9.49
2019-02-21T18:05:09.689Z,9.48
2019-02-21T18:07:38.152Z,9.49
2019-02-21T18:10:10.046Z,9.49
2019-02-21T18:12:38.565Z,9.49
2019-02-21T18:15:09.200Z,9.50
2019-02-21T18:17:37.677Z,9.50
2019-02-21T18:20:08.812Z,9.49
2019-02-21T18:22:37.502Z,9.48
2019-02-21T18:25:11.995Z,9.47
2019-02-21T18:27:40.496Z,9.47
2019-02-21T18:30:16.794Z,9.46
2019-02-21T18:32:45.260Z,9.46
2019-02-21T18:35:13.857Z,9.45
2019-02-21T18:37:47.494Z,9.45
2019-02-21T18:40:20.633Z,9.45
2019-02-21T18:42:48.247Z,9.43
2019-02-21T18:45:17.722Z,9.42
2019-02-21T18:47:46.240Z,9.41
2019-02-21T18:50:15.167Z,9.41
2019-02-21T18:52:43.730Z,9.38
2019-02-21T18:55:12.419Z,9.39
2019-02-21T18:57:40.876Z,9.38
2019-02-21T19:00:14.765Z,9.37
2019-02-21T19:02:43.284Z,9.37
2019-02-21T19:05:11.730Z,9.36
2019-02-21T19:07:40.186Z,9.35
2019-02-21T19:10:20.772Z,9.35
2019-02-21T19:12:49.231Z,9.33
2019-02-21T19:15:21.391Z,9.32
2019-02-21T19:17:49.961Z,9.29
2019-02-21T19:20:20.392Z,9.30
2019-02-21T19:22:48.927Z,9.30
2019-02-21T19:25:17.427Z,9.29
2019-02-21T19:27:45.888Z,9.29
2019-02-21T19:30:17.527Z,9.29
2019-02-21T19:32:46.037Z,9.28
2019-02-21T19:35:14.509Z,9.27
2019-02-21T19:37:47.731Z,9.28
2019-02-21T19:40:16.419Z,9.27
2019-02-21T19:42:44.885Z,9.27
2019-02-21T19:45:13.341Z,9.27
2019-02-21T19:47:42.024Z,9.26
2019-02-21T19:50:10.564Z,9.25
2019-02-21T19:52:39.025Z,9.24
2019-02-21T19:55:09.680Z,9.25
2019-02-21T19:57:38.130Z,9.24
2019-02-21T20:00:16.415Z,9.24
2019-02-21T20:02:44.881Z,9.22
2019-02-21T20:05:13.338Z,9.21
2019-02-21T20:07:41.819Z,9.22
2019-02-21T20:10:10.343Z,9.21
2019-02-21T20:12:47.898Z,9.21
2019-02-21T20:15:16.511Z,9.20
2019-02-21T20:17:44.973Z,9.18
2019-02-21T20:20:21.872Z,9.18
2019-02-21T20:22:50.336Z,9.17
2019-02-21T20:25:18.799Z,9.17
2019-02-21T20:27:47.467Z,9.17
2019-02-21T20:30:17.191Z,9.16
2019-02-21T20:32:45.659Z,9.15
2019-02-21T20:35:14.168Z,9.16
2019-02-21T20:37:42.665Z,9.15
2019-02-21T20:40:12.272Z,9.15
2019-02-21T20:42:41.594Z,9.16
2019-02-21T20:45:13.924Z,9.17
2019-02-21T20:47:42.377Z,9.17
2019-02-21T20:50:12.476Z,9.16
2019-02-21T20:52:43.871Z,9.15
2019-02-21T20:55:12.520Z,9.15
2019-02-21T20:57:41.063Z,9.16
2019-02-21T21:00:14.872Z,9.16
2019-02-21T21:02:43.473Z,9.16
2019-02-21T21:05:12.060Z,9.14
2019-02-21T21:07:40.509Z,9.13
2019-02-21T21:10:16.911Z,9.13
2019-02-21T21:12:45.440Z,9.11
2019-02-21T21:15:14.747Z,9.09
2019-02-21T21:17:43.314Z,9.10
2019-02-21T21:20:16.979Z,9.08
2019-02-21T21:22:43.805Z,9.07
2019-02-21T21:25:15.806Z,8.92
2019-02-21T21:27:44.272Z,9.04
2019-02-21T21:30:17.667Z,9.03
2019-02-21T21:32:46.178Z,9.03
2019-02-21T21:35:14.654Z,9.02
2019-02-21T21:37:43.179Z,8.99
2019-02-21T21:40:14.503Z,8.99
2019-02-21T21:42:42.975Z,8.97
2019-02-21T21:45:14.369Z,8.97
2019-02-21T21:47:42.859Z,8.97
2019-02-21T21:50:13.966Z,8.96
2019-02-21T21:52:43.868Z,8.96
2019-02-21T21:55:12.360Z,8.95
2019-02-21T21:57:40.832Z,8.95
2019-02-21T22:00:17.895Z,8.93
2019-02-21T22:02:45.469Z,8.93
2019-02-21T22:05:13.927Z,8.93
2019-02-21T22:07:42.377Z,8.93
2019-02-21T22:10:12.715Z,8.93
2019-02-21T22:12:41.176Z,8.92
2019-02-21T22:15:12.739Z,8.93
2019-02-21T22:17:42.185Z,8.92
2019-02-21T22:20:10.944Z,8.92
2019-02-21T22:22:39.399Z,8.91
2019-02-21T22:25:10.440Z,8.91
2019-02-21T22:27:38.915Z,8.91
2019-02-21T22:30:16.462Z,8.91
2019-02-21T22:32:44.929Z,8.87
2019-02-21T22:35:13.390Z,8.87
2019-02-21T22:37:41.872Z,8.89
2019-02-21T22:40:12.766Z,8.89
2019-02-21T22:42:41.258Z,8.90
2019-02-21T22:45:10.377Z,8.90
2019-02-21T22:47:38.849Z,8.91
2019-02-21T22:50:19.091Z,8.90
2019-02-21T22:52:47.589Z,8.90
2019-02-21T22:55:16.394Z,8.87
2019-02-21T22:57:44.876Z,8.87
2019-02-21T23:00:54.392Z,8.85
2019-02-21T23:03:25.692Z,8.85
2019-02-21T23:06:12.669Z,8.85
2019-02-21T23:08:45.130Z,8.85
2019-02-21T23:11:13.749Z,8.83
2019-02-21T23:13:42.208Z,8.81
2019-02-21T23:16:10.698Z,8.81
2019-02-21T23:18:39.234Z,8.79
2019-02-21T23:21:07.698Z,8.77
2019-02-21T23:23:36.193Z,8.58
2019-02-21T23:26:04.658Z,8.73
2019-02-21T23:28:33.126Z,8.72
2019-02-21T23:31:01.620Z,8.71
2019-02-21T23:33:31.436Z,8.72
2019-02-21T23:36:00.076Z,8.72
2019-02-21T23:38:28.559Z,8.72
2019-02-21T23:40:57.031Z,8.71
2019-02-21T23:43:25.477Z,8.70
2019-02-21T23:45:53.991Z,8.71
2019-02-21T23:48:22.447Z,8.72
2019-02-21T23:50:50.919Z,8.70
2019-02-21T23:53:19.418Z,8.71
2019-02-21T23:55:48.050Z,8.72
2019-02-21T23:58:16.526Z,8.72
